Time;durP1;ratioP1;P1;durP2;ratioP2;P2;SDS_P1;SDS_P2;PMS_P1;PMS_P2;Temp;Humidity;BMP_temperature;BMP_pressure;BME280_temperature;BME280_humidity;BME280_pressure;Samples;Min_cycle;Max_cycle;Signal;HPM_P1;HPM_P2
2022/05/24 00:00:26;;;;;;;;;;;15.20;1.00;;;;;;5017965;28;20347;-83
2022/05/24 00:02:52;;;;;;;;;;;15.20;1.00;;;;;;5034895;28;19924;-81
2022/05/24 00:05:18;;;;;;;;;;;15.20;1.00;;;;;;5040004;28;20401;-82
2022/05/24 00:07:44;;;;;;;;;;;15.20;1.00;;;;;;5017573;28;19913;-82
2022/05/24 00:10:12;;;;;;;;;;;15.20;1.00;;;;;;5041016;28;19921;-83
2022/05/24 00:12:39;;;;;;;;;;;15.20;1.00;;;;;;5034805;28;20289;-83
2022/05/24 00:15:23;;;;;;;;;;;15.10;1.00;;;;;;5032863;28;19917;-83
2022/05/24 00:17:50;;;;;;;;;;;15.10;1.00;;;;;;5027389;28;19955;-83
2022/05/24 00:20:16;;;;;;;;;;;15.10;1.00;;;;;;5028035;28;19952;-83
2022/05/24 00:22:42;;;;;;;;;;;15.10;1.00;;;;;;5035631;28;19913;-83
2022/05/24 00:25:08;;;;;;;;;;;15.10;1.00;;;;;;5027691;28;19921;-84
2022/05/24 00:27:33;;;;;;;;;;;15.10;1.00;;;;;;5012865;28;19936;-83
2022/05/24 00:29:58;;;;;;;;;;;15.10;1.00;;;;;;5038140;28;20192;-84
2022/05/24 00:32:24;;;;;;;;;;;15.10;1.00;;;;;;5020100;28;19920;-84
2022/05/24 00:34:50;;;;;;;;;;;15.10;1.00;;;;;;5038199;28;19914;-83
2022/05/24 00:37:17;;;;;;;;;;;15.10;1.00;;;;;;5034246;28;20008;-82
2022/05/24 00:39:42;;;;;;;;;;;15.10;1.00;;;;;;5030696;28;19963;-83
2022/05/24 00:42:12;;;;;;;;;;;15.10;1.00;;;;;;5035959;28;19914;-83
2022/05/24 00:44:44;;;;;;;;;;;15.10;1.00;;;;;;5014478;28;19963;-84
2022/05/24 00:47:12;;;;;;;;;;;15.10;1.00;;;;;;5017281;28;19957;-83
2022/05/24 00:49:41;;;;;;;;;;;15.10;1.00;;;;;;5017312;28;19965;-83
2022/05/24 00:52:06;;;;;;;;;;;15.10;1.00;;;;;;5024957;28;20370;-83
2022/05/24 00:54:32;;;;;;;;;;;15.10;1.00;;;;;;5009165;28;19924;-83
2022/05/24 00:57:12;;;;;;;;;;;15.10;1.00;;;;;;5033637;28;20115;-83
2022/05/24 00:59:42;;;;;;;;;;;15.10;1.00;;;;;;5040430;28;19959;-84
2022/05/24 01:02:07;;;;;;;;;;;15.00;1.00;;;;;;5016830;28;19918;-83
2022/05/24 01:04:33;;;;;;;;;;;15.00;1.00;;;;;;5017804;28;19956;-83
2022/05/24 01:06:58;;;;;;;;;;;14.90;1.00;;;;;;5033426;28;19935;-83
2022/05/24 01:09:28;;;;;;;;;;;14.90;1.00;;;;;;5048092;28;19920;-83
2022/05/24 01:11:57;;;;;;;;;;;14.80;1.00;;;;;;5034943;28;20259;-84
2022/05/24 01:14:23;;;;;;;;;;;14.70;1.00;;;;;;5040939;28;19913;-83
2022/05/24 01:16:49;;;;;;;;;;;14.70;1.00;;;;;;5017089;28;19936;-83
2022/05/24 01:19:23;;;;;;;;;;;14.60;1.00;;;;;;5017720;28;19920;-84
2022/05/24 01:21:49;;;;;;;;;;;14.50;1.00;;;;;;5017830;28;19918;-83
2022/05/24 01:24:38;;;;;;;;;;;14.50;1.00;;;;;;5040394;28;19920;-82
2022/05/24 01:27:03;;;;;;;;;;;14.50;1.00;;;;;;5029262;28;20004;-83
2022/05/24 01:29:28;;;;;;;;;;;14.40;1.00;;;;;;5036965;28;19960;-85
2022/05/24 01:37:25;;;;;;;;;;;14.30;1.00;;;;;;5031711;28;19924;-83
2022/05/24 01:39:51;;;;;;;;;;;14.30;1.00;;;;;;5026320;28;19913;-84
2022/05/24 01:42:17;;;;;;;;;;;14.30;1.00;;;;;;5038294;28;19917;-83
2022/05/24 01:44:48;;;;;;;;;;;14.20;1.00;;;;;;5021369;28;20369;-83
2022/05/24 01:47:14;;;;;;;;;;;14.20;1.00;;;;;;5016146;28;20382;-83
2022/05/24 01:49:41;;;;;;;;;;;14.20;1.00;;;;;;5037239;28;19944;-82
2022/05/24 01:52:10;;;;;;;;;;;14.20;1.00;;;;;;5022594;28;20012;-83
2022/05/24 01:54:38;;;;;;;;;;;14.10;1.00;;;;;;5038855;28;20008;-83
2022/05/24 01:57:07;;;;;;;;;;;14.10;1.00;;;;;;5026082;28;19917;-84
2022/05/24 01:59:33;;;;;;;;;;;14.10;1.00;;;;;;5022807;28;19920;-83
2022/05/24 02:01:59;;;;;;;;;;;14.10;1.00;;;;;;5023551;28;19913;-83
2022/05/24 02:04:26;;;;;;;;;;;14.00;1.00;;;;;;5048468;28;19936;-83
2022/05/24 02:07:02;;;;;;;;;;;13.90;1.00;;;;;;5036295;28;20826;-82
2022/05/24 02:09:31;;;;;;;;;;;13.90;1.00;;;;;;5017233;28;19937;-83
2022/05/24 02:11:58;;;;;;;;;;;13.80;1.00;;;;;;5035605;28;19913;-84
2022/05/24 02:14:27;;;;;;;;;;;13.80;1.00;;;;;;5033668;28;20012;-83
2022/05/24 02:17:00;;;;;;;;;;;13.70;1.00;;;;;;5040569;28;19925;-83
2022/05/24 02:19:27;;;;;;;;;;;13.70;1.00;;;;;;5023838;28;19917;-83
2022/05/24 02:21:55;;;;;;;;;;;13.70;1.00;;;;;;5040830;28;19976;-84
2022/05/24 02:24:23;;;;;;;;;;;13.60;1.00;;;;;;5033877;28;20388;-84
2022/05/24 02:26:49;;;;;;;;;;;13.60;1.00;;;;;;5018005;28;19917;-82
2022/05/24 02:29:15;;;;;;;;;;;13.60;1.00;;;;;;5036872;28;19913;-83
2022/05/24 02:31:40;;;;;;;;;;;13.60;1.00;;;;;;5014921;28;20358;-83
2022/05/24 02:34:06;;;;;;;;;;;13.60;1.00;;;;;;5019741;28;19917;-83
2022/05/24 02:36:32;;;;;;;;;;;13.60;1.00;;;;;;5019958;28;19915;-84
2022/05/24 02:38:58;;;;;;;;;;;13.50;1.00;;;;;;5022988;28;19975;-83
2022/05/24 02:41:29;;;;;;;;;;;13.50;1.00;;;;;;5036505;28;19913;-82
2022/05/24 02:43:56;;;;;;;;;;;13.50;1.00;;;;;;5028662;28;19940;-83
2022/05/24 02:46:21;;;;;;;;;;;13.60;1.00;;;;;;5035139;28;20447;-82
2022/05/24 02:48:47;;;;;;;;;;;13.50;1.00;;;;;;5025374;28;19917;-83
2022/05/24 02:51:14;;;;;;;;;;;13.50;1.00;;;;;;5018917;28;19916;-82
2022/05/24 02:53:40;;;;;;;;;;;13.50;1.00;;;;;;5032043;28;19913;-83
2022/05/24 02:56:08;;;;;;;;;;;13.50;1.00;;;;;;5037311;28;19921;-83
2022/05/24 02:58:35;;;;;;;;;;;13.50;1.00;;;;;;5020182;28;19928;-83
2022/05/24 03:01:00;;;;;;;;;;;13.40;1.00;;;;;;5035029;28;20342;-83
2022/05/24 03:03:26;;;;;;;;;;;13.40;1.00;;;;;;5039426;28;19948;-82
2022/05/24 03:05:51;;;;;;;;;;;13.40;1.00;;;;;;5022792;28;19920;-83
2022/05/24 03:11:01;;;;;;;;;;;13.40;1.00;;;;;;5038758;28;19927;-83
2022/05/24 03:16:13;;;;;;;;;;;13.40;1.00;;;;;;5036050;28;19939;-83
2022/05/24 03:18:40;;;;;;;;;;;13.40;1.00;;;;;;5043130;28;19924;-82
2022/05/24 03:21:05;;;;;;;;;;;13.40;1.00;;;;;;5019463;28;19921;-83
2022/05/24 03:23:31;;;;;;;;;;;13.40;1.00;;;;;;5045229;28;19909;-83
2022/05/24 03:25:57;;;;;;;;;;;13.40;1.00;;;;;;5035449;28;19925;-83
2022/05/24 03:28:22;;;;;;;;;;;13.40;1.00;;;;;;5033124;28;19913;-82
2022/05/24 03:30:48;;;;;;;;;;;13.50;1.00;;;;;;5035176;28;19928;-83
2022/05/24 03:33:13;;;;;;;;;;;13.50;1.00;;;;;;5019067;28;19921;-82
2022/05/24 03:35:39;;;;;;;;;;;13.50;1.00;;;;;;5041867;28;19925;-84
2022/05/24 03:38:05;;;;;;;;;;;13.50;1.00;;;;;;5032698;28;20386;-83
2022/05/24 03:40:31;;;;;;;;;;;13.40;1.00;;;;;;5039696;28;19913;-82
2022/05/24 03:42:57;;;;;;;;;;;13.50;1.00;;;;;;5013007;28;20063;-83
2022/05/24 03:45:22;;;;;;;;;;;13.50;1.00;;;;;;5036039;28;19913;-83
2022/05/24 03:47:48;;;;;;;;;;;13.50;1.00;;;;;;5033182;28;19913;-84
2022/05/24 03:50:14;;;;;;;;;;;13.50;1.00;;;;;;5041451;28;19913;-83
2022/05/24 03:52:40;;;;;;;;;;;13.50;1.00;;;;;;5037023;28;19912;-82
2022/05/24 03:55:06;;;;;;;;;;;13.50;1.00;;;;;;5018180;28;19920;-82
2022/05/24 04:00:18;;;;;;;;;;;13.40;1.00;;;;;;5042501;28;20012;-83
2022/05/24 04:02:44;;;;;;;;;;;13.40;99.90;;;;;;5020893;28;19948;-82
2022/05/24 04:05:10;;;;;;;;;;;13.40;99.90;;;;;;5035416;28;19913;-83
2022/05/24 04:07:36;;;;;;;;;;;13.40;99.90;;;;;;5040771;28;19919;-82
2022/05/24 04:10:02;;;;;;;;;;;13.40;99.90;;;;;;5016567;28;19914;-82
2022/05/24 04:12:27;;;;;;;;;;;13.40;99.90;;;;;;5036540;28;19945;-83
2022/05/24 04:14:53;;;;;;;;;;;13.40;99.90;;;;;;5037486;28;19936;-83
2022/05/24 04:17:18;;;;;;;;;;;13.40;99.90;;;;;;5033369;28;19916;-83
2022/05/24 04:19:44;;;;;;;;;;;13.40;99.90;;;;;;5040162;28;19987;-82
2022/05/24 04:22:09;;;;;;;;;;;13.40;99.90;;;;;;5018681;28;19913;-83
2022/05/24 04:24:35;;;;;;;;;;;13.40;99.90;;;;;;5038662;28;19944;-83
2022/05/24 04:27:00;;;;;;;;;;;13.40;49.90;;;;;;5017640;28;19927;-81
2022/05/24 04:29:26;;;;;;;;;;;13.40;83.00;;;;;;5035232;28;19920;-81
2022/05/24 04:31:51;;;;;;;;;;;13.40;99.90;;;;;;5032515;28;19919;-81
2022/05/24 04:34:17;;;;;;;;;;;13.40;99.90;;;;;;5035531;28;19917;-81
2022/05/24 04:36:45;;;;;;;;;;;13.40;99.90;;;;;;5030656;28;19920;-80
2022/05/24 04:39:11;;;;;;;;;;;13.40;99.90;;;;;;5017863;28;19921;-81
2022/05/24 04:44:21;;;;;;;;;;;13.50;99.90;;;;;;5040161;28;20400;-81
2022/05/24 04:49:30;;;;;;;;;;;13.50;99.90;;;;;;5036854;28;19920;-81
2022/05/24 04:51:56;;;;;;;;;;;13.50;25.00;;;;;;5034951;28;19917;-81
2022/05/24 04:54:22;;;;;;;;;;;13.50;99.90;;;;;;5021464;28;19943;-81
2022/05/24 04:56:47;;;;;;;;;;;13.50;1.00;;;;;;5030857;28;19917;-81
2022/05/24 04:59:13;;;;;;;;;;;13.40;92.30;;;;;;5018858;28;20382;-81
2022/05/24 05:01:38;;;;;;;;;;;13.40;99.90;;;;;;5014657;28;19913;-81
2022/05/24 05:04:04;;;;;;;;;;;13.30;99.90;;;;;;5018070;28;19916;-81
2022/05/24 05:06:29;;;;;;;;;;;13.20;99.90;;;;;;5033538;28;19913;-81
2022/05/24 05:08:55;;;;;;;;;;;13.20;99.90;;;;;;5021411;28;19975;-81
2022/05/24 05:11:20;;;;;;;;;;;13.20;99.90;;;;;;5039524;28;19928;-82
2022/05/24 05:13:46;;;;;;;;;;;13.10;1.00;;;;;;5026762;28;19917;-81
2022/05/24 05:16:12;;;;;;;;;;;13.10;1.00;;;;;;5039085;28;19952;-81
2022/05/24 05:18:37;;;;;;;;;;;13.00;1.00;;;;;;5042669;28;19916;-81
2022/05/24 05:21:03;;;;;;;;;;;13.00;1.00;;;;;;5017671;28;19984;-81
2022/05/24 05:23:28;;;;;;;;;;;12.90;1.00;;;;;;5020519;28;19917;-81
2022/05/24 05:25:54;;;;;;;;;;;12.90;1.00;;;;;;5021939;28;19924;-80
2022/05/24 05:28:19;;;;;;;;;;;12.90;1.00;;;;;;5018284;28;19913;-80
2022/05/24 05:33:30;;;;;;;;;;;12.80;1.00;;;;;;5041057;28;19920;-81
2022/05/24 05:35:55;;;;;;;;;;;12.70;1.00;;;;;;5016934;28;20011;-79
2022/05/24 05:38:21;;;;;;;;;;;12.70;1.00;;;;;;5008090;28;20006;-79
2022/05/24 05:40:49;;;;;;;;;;;12.80;1.00;;;;;;5019535;28;19917;-79
2022/05/24 05:43:14;;;;;;;;;;;12.80;1.00;;;;;;5016775;28;19996;-80
2022/05/24 05:45:40;;;;;;;;;;;12.90;1.00;;;;;;5014769;28;20011;-79
2022/05/24 05:48:05;;;;;;;;;;;12.90;1.00;;;;;;5015004;28;19919;-80
2022/05/24 05:50:31;;;;;;;;;;;12.90;1.00;;;;;;5010230;28;20007;-79
2022/05/24 05:53:03;;;;;;;;;;;12.80;1.00;;;;;;5031192;28;19917;-79
2022/05/24 05:55:29;;;;;;;;;;;12.80;1.00;;;;;;5014818;28;19917;-79
2022/05/24 05:57:55;;;;;;;;;;;12.80;1.00;;;;;;5026203;28;19963;-80
2022/05/24 06:00:20;;;;;;;;;;;12.90;1.00;;;;;;5018708;28;19929;-80
2022/05/24 06:02:46;;;;;;;;;;;12.90;1.00;;;;;;5030851;28;19925;-79
2022/05/24 06:05:12;;;;;;;;;;;12.90;1.00;;;;;;5009773;28;19913;-80
2022/05/24 06:07:38;;;;;;;;;;;12.90;1.00;;;;;;5027267;28;19914;-79
2022/05/24 06:10:04;;;;;;;;;;;12.90;1.00;;;;;;5030055;28;19913;-79
2022/05/24 06:12:30;;;;;;;;;;;12.90;1.00;;;;;;5018788;28;19996;-79
2022/05/24 06:14:55;;;;;;;;;;;12.80;1.00;;;;;;5024985;28;19955;-79
2022/05/24 06:17:21;;;;;;;;;;;12.80;1.00;;;;;;5025100;28;19916;-79
2022/05/24 06:19:47;;;;;;;;;;;12.80;1.00;;;;;;5017510;28;20353;-79
2022/05/24 06:22:12;;;;;;;;;;;12.80;1.00;;;;;;5019509;28;19967;-79
2022/05/24 06:24:38;;;;;;;;;;;12.90;1.00;;;;;;5024147;28;19920;-79
2022/05/24 06:27:04;;;;;;;;;;;13.00;1.00;;;;;;5023073;28;19913;-79
2022/05/24 06:29:33;;;;;;;;;;;13.10;1.00;;;;;;5037439;28;19909;-79
2022/05/24 06:31:59;;;;;;;;;;;13.40;1.00;;;;;;5034929;28;20281;-79
2022/05/24 06:34:29;;;;;;;;;;;13.70;99.90;;;;;;5019942;28;19913;-80
2022/05/24 06:36:55;;;;;;;;;;;14.10;99.90;;;;;;5035335;28;19923;-80
2022/05/24 06:39:21;;;;;;;;;;;14.30;99.90;;;;;;5021368;28;20011;-80
2022/05/24 06:41:47;;;;;;;;;;;14.50;1.00;;;;;;5037474;28;19917;-80
2022/05/24 06:44:12;;;;;;;;;;;14.70;99.90;;;;;;5025542;28;20392;-79
2022/05/24 06:46:38;;;;;;;;;;;14.80;1.00;;;;;;5034518;28;19936;-79
2022/05/24 06:49:04;;;;;;;;;;;14.90;99.90;;;;;;5041836;28;19924;-80
2022/05/24 06:51:32;;;;;;;;;;;15.10;45.80;;;;;;5021184;28;19916;-79
2022/05/24 06:53:58;;;;;;;;;;;15.30;1.00;;;;;;5033706;28;20038;-79
2022/05/24 06:56:23;;;;;;;;;;;15.50;1.00;;;;;;5040345;28;19951;-80
2022/05/24 06:58:48;;;;;;;;;;;15.80;99.90;;;;;;5023496;28;19932;-80
2022/05/24 07:03:58;;;;;;;;;;;17.60;99.90;;;;;;5038278;28;20293;-80
2022/05/24 07:06:24;;;;;;;;;;;22.90;1.00;;;;;;5041706;28;19910;-80
2022/05/24 07:08:50;;;;;;;;;;;24.20;99.90;;;;;;5038096;28;20469;-81
2022/05/24 07:11:17;;;;;;;;;;;22.90;99.90;;;;;;5014836;28;19908;-81
2022/05/24 07:13:43;;;;;;;;;;;22.00;99.90;;;;;;5036655;28;19917;-81
2022/05/24 07:16:09;;;;;;;;;;;22.00;99.90;;;;;;5039291;28;19971;-81
2022/05/24 07:18:35;;;;;;;;;;;24.90;99.90;;;;;;5047673;28;19947;-80
2022/05/24 07:21:00;;;;;;;;;;;24.70;99.90;;;;;;5043689;28;19964;-81
2022/05/24 07:33:20;;;;;;;;;;;33.30;99.90;;;;;;5095323;28;20388;-82
2022/05/24 07:39:13;;;;;;;;;;;28.90;99.90;;;;;;5087755;28;19999;-79
2022/05/24 07:47:20;;;;;;;;;;;25.70;99.90;;;;;;5095464;28;19958;-79
2022/05/24 07:49:46;;;;;;;;;;;29.80;99.90;;;;;;5080728;28;19927;-79
2022/05/24 07:52:12;;;;;;;;;;;29.90;99.90;;;;;;5104884;28;20350;-80
2022/05/24 07:54:37;;;;;;;;;;;30.40;99.90;;;;;;5098546;28;19937;-79
2022/05/24 07:57:08;;;;;;;;;;;27.90;99.90;;;;;;5100966;28;19912;-79
2022/05/24 07:59:37;;;;;;;;;;;28.00;99.90;;;;;;5095590;28;19946;-77
2022/05/24 08:02:03;;;;;;;;;;;25.50;99.90;;;;;;5090692;28;20292;-77
2022/05/24 08:04:29;;;;;;;;;;;23.90;99.90;;;;;;5071968;28;19913;-77
2022/05/24 08:06:55;;;;;;;;;;;22.30;99.90;;;;;;5086559;28;19927;-77
2022/05/24 08:09:21;;;;;;;;;;;21.50;99.90;;;;;;5087224;28;19913;-77
2022/05/24 08:11:46;;;;;;;;;;;21.20;99.90;;;;;;5089718;28;19974;-77
2022/05/24 08:14:12;;;;;;;;;;;22.10;99.90;;;;;;5076709;28;19916;-76
2022/05/24 08:16:37;;;;;;;;;;;23.20;99.90;;;;;;5082780;28;20308;-76
2022/05/24 08:19:04;;;;;;;;;;;22.30;99.90;;;;;;5086003;28;19919;-77
2022/05/24 08:21:30;;;;;;;;;;;21.20;99.90;;;;;;5070775;28;19911;-76
2022/05/24 08:23:56;;;;;;;;;;;19.80;99.90;;;;;;5079009;28;19959;-77
2022/05/24 08:26:21;;;;;;;;;;;19.30;99.90;;;;;;5087723;28;19923;-76
2022/05/24 08:28:47;;;;;;;;;;;19.50;99.90;;;;;;5081046;28;19912;-77
2022/05/24 08:31:14;;;;;;;;;;;19.10;99.90;;;;;;5090153;28;20330;-77
2022/05/24 08:33:40;;;;;;;;;;;18.80;99.90;;;;;;5083300;28;19917;-77
2022/05/24 08:36:06;;;;;;;;;;;18.50;99.90;;;;;;5081739;28;19948;-78
2022/05/24 08:38:31;;;;;;;;;;;18.40;99.90;;;;;;5068974;28;19959;-78
2022/05/24 08:41:03;;;;;;;;;;;21.80;99.90;;;;;;5057934;28;20284;-77
2022/05/24 08:43:47;;;;;;;;;;;24.70;99.90;;;;;;5054682;28;19916;-77
2022/05/24 08:49:00;;;;;;;;;;;23.10;99.90;;;;;;5073046;28;20002;-78
2022/05/24 08:51:46;;;;;;;;;;;27.50;99.90;;;;;;5071048;28;19928;-78
2022/05/24 08:54:16;;;;;;;;;;;28.00;99.90;;;;;;5070603;28;20467;-79
2022/05/24 08:56:51;;;;;;;;;;;28.40;99.90;;;;;;5069623;28;20018;-80
2022/05/24 08:59:27;;;;;;;;;;;27.40;99.90;;;;;;5075651;28;20373;-78
2022/05/24 09:01:53;;;;;;;;;;;27.70;99.90;;;;;;5084604;28;19912;-80
2022/05/24 09:04:19;;;;;;;;;;;26.30;99.90;;;;;;5080594;28;19947;-79
2022/05/24 09:06:44;;;;;;;;;;;24.90;99.90;;;;;;5089149;28;20384;-79
2022/05/24 09:09:29;;;;;;;;;;;23.50;99.90;;;;;;5070150;28;19995;-79
2022/05/24 09:12:03;;;;;;;;;;;22.20;99.90;;;;;;5087963;28;19916;-80
2022/05/24 09:14:44;;;;;;;;;;;21.50;99.90;;;;;;5092780;28;19935;-79
2022/05/24 09:17:17;;;;;;;;;;;21.30;99.90;;;;;;5094247;28;19999;-80
2022/05/24 09:19:45;;;;;;;;;;;20.80;99.90;;;;;;5085796;28;19919;-80
2022/05/24 09:22:11;;;;;;;;;;;22.10;99.90;;;;;;5075331;28;20000;-80
2022/05/24 09:24:42;;;;;;;;;;;26.50;99.90;;;;;;5059483;28;19963;-80
2022/05/24 09:27:23;;;;;;;;;;;29.70;99.90;;;;;;5065026;28;19920;-80
2022/05/24 09:29:52;;;;;;;;;;;28.80;99.90;;;;;;5071677;28;20320;-80
2022/05/24 09:32:18;;;;;;;;;;;27.80;99.90;;;;;;5082081;28;20335;-80
2022/05/24 09:34:44;;;;;;;;;;;27.90;99.90;;;;;;5067270;28;20394;-80
2022/05/24 09:37:21;;;;;;;;;;;29.20;99.90;;;;;;5076099;28;19913;-81
2022/05/24 09:39:57;;;;;;;;;;;30.90;99.90;;;;;;5069810;28;19913;-81
2022/05/24 09:42:27;;;;;;;;;;;31.00;99.90;;;;;;5089495;28;20295;-80
2022/05/24 09:44:58;;;;;;;;;;;30.80;99.90;;;;;;5077579;28;19920;-81
2022/05/24 09:47:27;;;;;;;;;;;30.80;99.90;;;;;;5075701;28;19938;-80
2022/05/24 09:49:53;;;;;;;;;;;31.90;99.90;;;;;;5070454;28;20364;-81
2022/05/24 09:52:18;;;;;;;;;;;30.40;99.90;;;;;;5072686;28;19917;-82
2022/05/24 09:55:11;;;;;;;;;;;28.90;99.90;;;;;;5059245;28;19916;-82
2022/05/24 09:57:37;;;;;;;;;;;27.40;99.90;;;;;;5065371;28;19920;-82
2022/05/24 10:00:14;;;;;;;;;;;26.30;99.90;;;;;;5087881;28;19912;-83
2022/05/24 10:02:42;;;;;;;;;;;26.10;99.90;;;;;;5071412;28;19917;-82
2022/05/24 10:05:17;;;;;;;;;;;25.60;99.90;;;;;;5069626;28;19917;-82
2022/05/24 10:07:53;;;;;;;;;;;25.70;99.90;;;;;;5076218;28;20329;-82
2022/05/24 10:10:21;;;;;;;;;;;25.90;99.90;;;;;;5069170;28;19919;-82
2022/05/24 10:12:47;;;;;;;;;;;26.20;99.90;;;;;;5057688;28;19919;-82
2022/05/24 10:15:30;;;;;;;;;;;26.10;99.90;;;;;;5060474;28;19916;-82
2022/05/24 10:18:02;;;;;;;;;;;25.00;99.90;;;;;;5073234;28;19913;-81
2022/05/24 10:20:35;;;;;;;;;;;23.90;99.90;;;;;;5059985;28;19912;-81
2022/05/24 10:23:03;;;;;;;;;;;24.00;99.90;;;;;;5077269;28;19912;-82
2022/05/24 10:25:35;;;;;;;;;;;23.80;99.90;;;;;;5063971;28;19962;-81
2022/05/24 10:28:07;;;;;;;;;;;23.70;99.90;;;;;;5064673;22;19925;-81
2022/05/24 10:30:38;;;;;;;;;;;23.90;99.90;;;;;;5053151;28;19912;-82
2022/05/24 10:39:20;;;;;;;;;;;22.70;99.90;;;;;;4989023;28;20301;-81
2022/05/24 10:42:07;;;;;;;;;;;22.50;99.90;;;;;;5034311;28;19913;-81
2022/05/24 10:44:36;;;;;;;;;;;24.00;99.90;;;;;;5036328;28;19967;-81
2022/05/24 10:47:07;;;;;;;;;;;25.20;99.90;;;;;;5032846;28;20756;-81
2022/05/24 10:50:05;;;;;;;;;;;24.90;99.90;;;;;;5033586;28;19920;-81
2022/05/24 10:52:37;;;;;;;;;;;24.20;99.90;;;;;;4977570;28;19917;-81
2022/05/24 10:55:09;;;;;;;;;;;23.30;99.90;;;;;;5035123;28;19921;-82
2022/05/24 10:57:45;;;;;;;;;;;23.40;99.90;;;;;;5032917;28;19914;-80
2022/05/24 11:00:18;;;;;;;;;;;24.30;99.90;;;;;;5037070;28;19917;-82
2022/05/24 11:03:06;;;;;;;;;;;26.70;99.90;;;;;;5014078;28;19913;-81
2022/05/24 11:05:44;;;;;;;;;;;27.40;99.90;;;;;;5033037;28;19917;-81
2022/05/24 11:08:28;;;;;;;;;;;28.80;99.90;;;;;;5033846;28;19913;-81
2022/05/24 11:10:55;;;;;;;;;;;29.50;99.90;;;;;;5032390;28;20296;-81
2022/05/24 11:13:27;;;;;;;;;;;28.40;99.90;;;;;;5038605;28;19949;-81
2022/05/24 11:15:54;;;;;;;;;;;27.30;99.90;;;;;;5031815;28;19924;-80
2022/05/24 11:18:21;;;;;;;;;;;26.40;99.90;;;;;;5031027;28;19956;-82
2022/05/24 11:20:54;;;;;;;;;;;25.60;99.90;;;;;;5019571;28;19932;-79
2022/05/24 11:23:50;;;;;;;;;;;24.90;99.90;;;;;;5036765;28;19917;-79
2022/05/24 11:26:27;;;;;;;;;;;24.30;99.90;;;;;;5022996;28;19917;-79
2022/05/24 11:29:11;;;;;;;;;;;24.50;99.90;;;;;;5028549;28;19979;-79
2022/05/24 11:31:41;;;;;;;;;;;26.00;99.90;;;;;;5044428;28;19913;-81
2022/05/24 11:34:39;;;;;;;;;;;27.50;99.90;;;;;;5041313;28;19963;-82
2022/05/24 11:37:13;;;;;;;;;;;27.40;99.90;;;;;;4998491;28;19913;-81
2022/05/24 11:39:43;;;;;;;;;;;27.00;99.90;;;;;;5039901;28;19944;-81
2022/05/24 11:42:38;;;;;;;;;;;26.70;99.90;;;;;;5042395;28;19920;-81
2022/05/24 11:45:22;;;;;;;;;;;26.40;99.90;;;;;;5024530;28;19944;-80
2022/05/24 11:47:47;;;;;;;;;;;26.60;99.90;;;;;;5035876;28;19917;-80
2022/05/24 11:50:31;;;;;;;;;;;25.30;99.90;;;;;;5022795;28;19913;-81
2022/05/24 11:53:11;;;;;;;;;;;25.90;99.90;;;;;;5040038;28;19913;-81
2022/05/24 11:55:36;;;;;;;;;;;26.80;99.90;;;;;;5037740;28;19913;-81
2022/05/24 11:58:21;;;;;;;;;;;27.00;99.90;;;;;;5040947;28;19963;-82
2022/05/24 12:01:01;;;;;;;;;;;26.70;99.90;;;;;;5034906;28;19920;-81
2022/05/24 12:09:12;;;;;;;;;;;25.30;99.90;;;;;;5041611;28;19936;-81
2022/05/24 12:11:38;;;;;;;;;;;25.70;99.90;;;;;;5045421;28;19920;-81
2022/05/24 12:14:17;;;;;;;;;;;27.00;99.90;;;;;;5043922;28;19913;-81
2022/05/24 12:16:47;;;;;;;;;;;27.10;99.90;;;;;;5046151;28;19917;-82
2022/05/24 12:19:33;;;;;;;;;;;27.60;99.90;;;;;;5019614;28;19917;-79
2022/05/24 12:22:01;;;;;;;;;;;27.50;99.90;;;;;;5031005;28;19948;-82
2022/05/24 12:24:33;;;;;;;;;;;26.30;99.90;;;;;;5037648;28;19921;-81
2022/05/24 12:27:17;;;;;;;;;;;26.40;99.90;;;;;;5045877;28;19984;-81
2022/05/24 12:29:43;;;;;;;;;;;27.20;99.90;;;;;;5024346;28;19917;-80
2022/05/24 12:32:10;;;;;;;;;;;27.50;99.90;;;;;;5040041;28;19913;-80
2022/05/24 12:34:36;;;;;;;;;;;27.40;99.90;;;;;;5024774;28;19952;-81
2022/05/24 12:37:05;;;;;;;;;;;26.40;99.90;;;;;;5042003;28;19920;-80
2022/05/24 12:39:35;;;;;;;;;;;25.70;99.90;;;;;;5040744;28;19936;-80
2022/05/24 12:42:02;;;;;;;;;;;25.20;99.90;;;;;;5043279;28;19913;-79
2022/05/24 12:44:33;;;;;;;;;;;24.60;99.90;;;;;;5038145;28;19932;-81
2022/05/24 12:46:58;;;;;;;;;;;24.30;99.90;;;;;;5043065;28;19924;-82
2022/05/24 12:49:25;;;;;;;;;;;23.90;99.90;;;;;;5043112;28;19913;-80
2022/05/24 12:52:09;;;;;;;;;;;23.30;99.90;;;;;;5023302;28;19921;-81
2022/05/24 12:54:36;;;;;;;;;;;23.10;99.90;;;;;;5039396;28;19917;-82
2022/05/24 12:57:03;;;;;;;;;;;22.80;99.90;;;;;;5044212;28;20008;-81
2022/05/24 12:59:34;;;;;;;;;;;22.70;99.90;;;;;;5040543;28;19924;-82
2022/05/24 13:02:11;;;;;;;;;;;22.50;99.90;;;;;;5040634;28;19913;-81
2022/05/24 13:04:36;;;;;;;;;;;22.10;99.90;;;;;;5040194;28;19913;-81
2022/05/24 13:07:21;;;;;;;;;;;22.40;99.90;;;;;;5039340;28;19921;-79
2022/05/24 13:09:48;;;;;;;;;;;23.30;99.90;;;;;;5041328;28;20292;-79
2022/05/24 13:12:15;;;;;;;;;;;24.30;99.90;;;;;;5040733;28;19913;-79
2022/05/24 13:14:59;;;;;;;;;;;24.90;99.90;;;;;;5038229;28;19913;-81
2022/05/24 13:17:27;;;;;;;;;;;25.10;99.90;;;;;;5038821;28;20373;-82
2022/05/24 13:20:07;;;;;;;;;;;24.40;99.90;;;;;;5037310;28;19917;-79
2022/05/24 13:22:41;;;;;;;;;;;23.90;99.90;;;;;;5038205;28;19917;-80
2022/05/24 13:25:15;;;;;;;;;;;24.30;99.90;;;;;;5042773;28;19917;-80
2022/05/24 13:27:49;;;;;;;;;;;24.40;99.90;;;;;;5024674;28;19961;-81
2022/05/24 13:35:46;;;;;;;;;;;24.50;99.90;;;;;;5038310;28;20329;-81
2022/05/24 13:38:11;;;;;;;;;;;24.70;99.90;;;;;;5041167;28;19949;-80
2022/05/24 13:40:39;;;;;;;;;;;24.60;99.90;;;;;;5039944;28;20289;-80
2022/05/24 13:43:05;;;;;;;;;;;24.10;99.90;;;;;;5035480;28;21210;-79
2022/05/24 13:45:32;;;;;;;;;;;23.70;99.90;;;;;;5032941;28;19917;-81
2022/05/24 13:48:00;;;;;;;;;;;23.70;99.90;;;;;;5040369;28;19936;-81
2022/05/24 13:50:41;;;;;;;;;;;24.00;99.90;;;;;;5040434;28;19913;-80
2022/05/24 13:53:25;;;;;;;;;;;24.20;99.90;;;;;;5037256;28;19921;-80
2022/05/24 13:56:13;;;;;;;;;;;24.00;99.90;;;;;;5026486;28;19921;-80
2022/05/24 13:58:41;;;;;;;;;;;23.80;99.90;;;;;;5012515;28;19929;-81
2022/05/24 14:01:09;;;;;;;;;;;23.40;99.90;;;;;;5040779;28;20005;-80
2022/05/24 14:03:41;;;;;;;;;;;23.40;99.90;;;;;;5042180;28;19913;-81
2022/05/24 14:06:08;;;;;;;;;;;23.20;99.90;;;;;;5041204;28;19976;-80
2022/05/24 14:08:34;;;;;;;;;;;22.30;99.90;;;;;;5041924;28;19917;-80
2022/05/24 14:10:59;;;;;;;;;;;21.30;99.90;;;;;;5034916;28;19956;-80
2022/05/24 14:13:25;;;;;;;;;;;20.20;99.90;;;;;;5042281;28;19936;-80
2022/05/24 14:15:50;;;;;;;;;;;19.40;99.90;;;;;;5038906;28;19917;-79
2022/05/24 14:18:16;;;;;;;;;;;18.90;99.90;;;;;;5036476;28;19913;-79
2022/05/24 14:20:42;;;;;;;;;;;18.10;99.90;;;;;;5039940;28;20031;-80
2022/05/24 14:23:08;;;;;;;;;;;17.80;99.90;;;;;;5024312;28;20383;-81
2022/05/24 14:25:33;;;;;;;;;;;17.40;99.90;;;;;;5045277;28;19923;-79
2022/05/24 14:27:59;;;;;;;;;;;17.20;99.90;;;;;;5040464;28;19943;-80
2022/05/24 14:30:25;;;;;;;;;;;17.20;1.00;;;;;;5038952;28;19913;-80
2022/05/24 14:32:51;;;;;;;;;;;17.30;99.90;;;;;;5037273;28;20385;-81
2022/05/24 14:35:16;;;;;;;;;;;17.70;99.90;;;;;;5043968;28;19914;-79
2022/05/24 14:37:42;;;;;;;;;;;18.30;99.90;;;;;;5038794;28;20282;-80
2022/05/24 14:40:07;;;;;;;;;;;18.90;99.90;;;;;;5043664;28;19913;-81
2022/05/24 14:42:34;;;;;;;;;;;19.40;99.90;;;;;;5035737;28;19935;-81
2022/05/24 14:45:01;;;;;;;;;;;19.80;99.90;;;;;;5037906;28;20015;-80
2022/05/24 14:47:27;;;;;;;;;;;20.20;99.90;;;;;;5036273;28;19913;-81
2022/05/24 14:49:53;;;;;;;;;;;20.40;99.90;;;;;;5044020;28;20507;-80
2022/05/24 14:52:19;;;;;;;;;;;20.50;99.90;;;;;;5020820;28;19937;-80
2022/05/24 14:54:46;;;;;;;;;;;20.60;99.90;;;;;;5022880;28;19952;-79
2022/05/24 14:57:13;;;;;;;;;;;20.60;99.90;;;;;;5035235;28;20559;-80
2022/05/24 14:59:39;;;;;;;;;;;20.60;99.90;;;;;;5035617;28;19933;-81
2022/05/24 15:02:07;;;;;;;;;;;20.70;99.90;;;;;;5039200;28;19913;-80
2022/05/24 15:04:34;;;;;;;;;;;20.80;99.90;;;;;;5038874;28;19924;-81
2022/05/24 15:15:20;;;;;;;;;;;21.00;99.90;;;;;;5042945;28;19919;-78
2022/05/24 15:15:22;;;;;;;;;;;21.00;99.90;;;;;;5011199;28;19959;-80
2022/05/24 15:17:48;;;;;;;;;;;20.80;99.90;;;;;;5035560;28;19913;-81
2022/05/24 15:20:17;;;;;;;;;;;20.70;99.90;;;;;;5036576;28;19943;-82
2022/05/24 15:22:45;;;;;;;;;;;20.70;99.90;;;;;;5041299;28;19913;-81
2022/05/24 15:25:12;;;;;;;;;;;20.60;99.90;;;;;;5032858;28;19960;-81
2022/05/24 15:27:38;;;;;;;;;;;20.60;99.90;;;;;;5028499;28;19964;-82
2022/05/24 15:30:07;;;;;;;;;;;20.60;99.90;;;;;;5033501;28;20277;-82
2022/05/24 15:32:33;;;;;;;;;;;20.70;99.90;;;;;;5034642;28;19913;-80
2022/05/24 15:34:58;;;;;;;;;;;20.70;99.90;;;;;;5038630;28;19913;-80
2022/05/24 15:37:24;;;;;;;;;;;20.70;99.90;;;;;;5035522;28;20368;-79
2022/05/24 15:39:49;;;;;;;;;;;20.70;99.90;;;;;;5018818;28;19924;-81